sensor_id;sensor_type;location;lat;lon;timestamp;P1;durP1;ratioP1;P2;durP2;ratioP2
76727;SDS011;65652;53.132;18.026;2023-03-24T01:34:55;8.00;;;4.00;;
76727;SDS011;65652;53.132;18.026;2023-03-24T01:37:21;7.60;;;3.60;;
76727;SDS011;65652;53.132;18.026;2023-03-24T01:39:51;9.10;;;4.10;;
76727;SDS011;65652;53.132;18.026;2023-03-24T01:42:18;8.40;;;3.40;;
76727;SDS011;65652;53.132;18.026;2023-03-24T01:44:48;9.50;;;4.40;;
76727;SDS011;65652;53.132;18.026;2023-03-24T01:47:16;10.40;;;4.30;;
76727;SDS011;65652;53.132;18.026;2023-03-24T01:49:45;8.50;;;4.10;;
76727;SDS011;65652;53.132;18.026;2023-03-24T01:52:21;9.00;;;4.10;;
76727;SDS011;65652;53.132;18.026;2023-03-24T01:54:55;8.20;;;3.70;;
76727;SDS011;65652;53.132;18.026;2023-03-24T01:57:27;9.10;;;4.20;;
76727;SDS011;65652;53.132;18.026;2023-03-24T01:59:59;9.50;;;4.20;;
76727;SDS011;65652;53.132;18.026;2023-03-24T02:02:45;9.10;;;3.70;;
76727;SDS011;65652;53.132;18.026;2023-03-24T02:05:20;7.50;;;3.40;;
76727;SDS011;65652;53.132;18.026;2023-03-24T02:10:21;9.70;;;3.90;;
76727;SDS011;65652;53.132;18.026;2023-03-24T02:15:16;8.90;;;3.70;;
76727;SDS011;65652;53.132;18.026;2023-03-24T02:20:40;9.80;;;4.60;;
76727;SDS011;65652;53.132;18.026;2023-03-24T02:26:51;11.00;;;5.10;;
76727;SDS011;65652;53.132;18.026;2023-03-24T02:41:31;13.70;;;6.10;;
76727;SDS011;65652;53.132;18.026;2023-03-24T02:46:18;11.00;;;5.50;;
76727;SDS011;65652;53.132;18.026;2023-03-24T02:57:18;12.40;;;6.00;;
76727;SDS011;65652;53.132;18.026;2023-03-24T03:00:37;12.20;;;6.00;;
76727;SDS011;65652;53.132;18.026;2023-03-24T03:03:57;11.30;;;5.80;;
76727;SDS011;65652;53.132;18.026;2023-03-24T03:06:38;11.10;;;5.80;;
76727;SDS011;65652;53.132;18.026;2023-03-24T03:09:10;12.00;;;5.80;;
76727;SDS011;65652;53.132;18.026;2023-03-24T03:11:40;11.90;;;6.20;;
76727;SDS011;65652;53.132;18.026;2023-03-24T03:14:20;13.50;;;6.20;;
76727;SDS011;65652;53.132;18.026;2023-03-24T03:16:58;13.10;;;6.10;;
76727;SDS011;65652;53.132;18.026;2023-03-24T03:19:31;10.70;;;6.10;;
76727;SDS011;65652;53.132;18.026;2023-03-24T03:22:02;13.70;;;7.30;;
76727;SDS011;65652;53.132;18.026;2023-03-24T03:24:37;13.50;;;7.10;;
76727;SDS011;65652;53.132;18.026;2023-03-24T03:27:11;16.20;;;6.50;;
76727;SDS011;65652;53.132;18.026;2023-03-24T03:32:14;13.40;;;6.30;;
76727;SDS011;65652;53.132;18.026;2023-03-24T03:34:51;12.90;;;6.30;;
76727;SDS011;65652;53.132;18.026;2023-03-24T03:37:28;12.50;;;6.50;;
76727;SDS011;65652;53.132;18.026;2023-03-24T03:40:07;15.50;;;7.70;;
76727;SDS011;65652;53.132;18.026;2023-03-24T03:42:50;14.10;;;7.30;;
76727;SDS011;65652;53.132;18.026;2023-03-24T03:45:17;13.30;;;7.20;;
76727;SDS011;65652;53.132;18.026;2023-03-24T03:47:43;14.20;;;7.30;;
76727;SDS011;65652;53.132;18.026;2023-03-24T03:50:11;16.10;;;8.30;;
76727;SDS011;65652;53.132;18.026;2023-03-24T03:52:37;14.90;;;7.30;;
76727;SDS011;65652;53.132;18.026;2023-03-24T03:55:06;13.60;;;7.70;;
76727;SDS011;65652;53.132;18.026;2023-03-24T03:57:34;12.30;;;7.20;;
76727;SDS011;65652;53.132;18.026;2023-03-24T04:00:15;19.90;;;8.40;;
76727;SDS011;65652;53.132;18.026;2023-03-24T04:05:58;15.90;;;8.00;;
76727;SDS011;65652;53.132;18.026;2023-03-24T04:15:00;16.80;;;8.20;;
76727;SDS011;65652;53.132;18.026;2023-03-24T04:26:42;13.60;;;7.60;;
76727;SDS011;65652;53.132;18.026;2023-03-24T04:29:28;13.40;;;7.30;;
76727;SDS011;65652;53.132;18.026;2023-03-24T04:32:14;14.70;;;6.80;;
76727;SDS011;65652;53.132;18.026;2023-03-24T04:34:55;14.30;;;7.60;;
76727;SDS011;65652;53.132;18.026;2023-03-24T04:37:43;15.50;;;7.40;;
76727;SDS011;65652;53.132;18.026;2023-03-24T04:40:18;14.80;;;8.30;;
76727;SDS011;65652;53.132;18.026;2023-03-24T04:42:48;18.40;;;8.60;;
76727;SDS011;65652;53.132;18.026;2023-03-24T04:45:23;14.90;;;7.90;;
76727;SDS011;65652;53.132;18.026;2023-03-24T04:48:03;14.10;;;7.80;;
76727;SDS011;65652;53.132;18.026;2023-03-24T04:50:59;13.60;;;7.30;;
76727;SDS011;65652;53.132;18.026;2023-03-24T04:59:36;14.10;;;6.90;;
76727;SDS011;65652;53.132;18.026;2023-03-24T05:02:04;16.80;;;8.30;;
76727;SDS011;65652;53.132;18.026;2023-03-24T05:04:52;15.20;;;8.10;;
76727;SDS011;65652;53.132;18.026;2023-03-24T05:07:25;14.90;;;8.40;;
76727;SDS011;65652;53.132;18.026;2023-03-24T05:09:55;16.90;;;7.90;;
76727;SDS011;65652;53.132;18.026;2023-03-24T05:12:22;18.20;;;8.30;;
76727;SDS011;65652;53.132;18.026;2023-03-24T05:15:20;15.20;;;8.50;;
76727;SDS011;65652;53.132;18.026;2023-03-24T05:17:49;15.90;;;8.20;;
76727;SDS011;65652;53.132;18.026;2023-03-24T05:20:17;16.40;;;8.00;;
76727;SDS011;65652;53.132;18.026;2023-03-24T05:22:47;16.10;;;8.10;;
76727;SDS011;65652;53.132;18.026;2023-03-24T05:25:14;13.20;;;7.50;;
76727;SDS011;65652;53.132;18.026;2023-03-24T05:27:41;16.60;;;7.80;;
76727;SDS011;65652;53.132;18.026;2023-03-24T05:30:17;15.10;;;7.80;;
76727;SDS011;65652;53.132;18.026;2023-03-24T05:32:45;12.80;;;7.10;;
76727;SDS011;65652;53.132;18.026;2023-03-24T05:35:12;11.70;;;6.10;;
76727;SDS011;65652;53.132;18.026;2023-03-24T05:37:38;11.60;;;6.80;;
76727;SDS011;65652;53.132;18.026;2023-03-24T05:40:04;11.90;;;6.10;;
76727;SDS011;65652;53.132;18.026;2023-03-24T05:42:44;13.20;;;7.10;;
76727;SDS011;65652;53.132;18.026;2023-03-24T05:45:14;14.60;;;7.20;;
76727;SDS011;65652;53.132;18.026;2023-03-24T05:47:40;13.20;;;7.30;;
76727;SDS011;65652;53.132;18.026;2023-03-24T05:50:06;13.90;;;7.30;;
76727;SDS011;65652;53.132;18.026;2023-03-24T05:52:33;11.30;;;6.80;;
76727;SDS011;65652;53.132;18.026;2023-03-24T05:55:21;11.90;;;7.10;;
76727;SDS011;65652;53.132;18.026;2023-03-24T05:57:51;10.10;;;5.70;;
76727;SDS011;65652;53.132;18.026;2023-03-24T06:00:18;14.60;;;8.10;;
76727;SDS011;65652;53.132;18.026;2023-03-24T06:02:57;11.90;;;6.60;;
76727;SDS011;65652;53.132;18.026;2023-03-24T06:05:29;12.90;;;7.20;;
76727;SDS011;65652;53.132;18.026;2023-03-24T06:07:57;13.50;;;6.40;;
76727;SDS011;65652;53.132;18.026;2023-03-24T06:10:27;13.80;;;8.10;;
76727;SDS011;65652;53.132;18.026;2023-03-24T06:12:55;11.60;;;5.30;;
76727;SDS011;65652;53.132;18.026;2023-03-24T06:15:22;9.60;;;5.30;;
76727;SDS011;65652;53.132;18.026;2023-03-24T06:17:54;11.20;;;6.10;;
76727;SDS011;65652;53.132;18.026;2023-03-24T06:20:29;11.20;;;5.80;;
76727;SDS011;65652;53.132;18.026;2023-03-24T06:23:06;10.20;;;5.20;;
76727;SDS011;65652;53.132;18.026;2023-03-24T06:25:43;10.40;;;5.50;;
76727;SDS011;65652;53.132;18.026;2023-03-24T06:28:15;10.50;;;5.40;;
76727;SDS011;65652;53.132;18.026;2023-03-24T06:30:44;10.60;;;5.80;;
76727;SDS011;65652;53.132;18.026;2023-03-24T06:33:15;8.60;;;4.70;;
76727;SDS011;65652;53.132;18.026;2023-03-24T06:35:43;11.40;;;5.30;;
76727;SDS011;65652;53.132;18.026;2023-03-24T06:38:13;10.40;;;5.80;;
76727;SDS011;65652;53.132;18.026;2023-03-24T06:40:40;9.40;;;4.50;;
76727;SDS011;65652;53.132;18.026;2023-03-24T06:43:06;11.10;;;5.90;;
76727;SDS011;65652;53.132;18.026;2023-03-24T06:45:35;12.20;;;5.90;;
76727;SDS011;65652;53.132;18.026;2023-03-24T06:48:04;10.10;;;4.10;;
76727;SDS011;65652;53.132;18.026;2023-03-24T06:50:31;9.60;;;5.10;;
76727;SDS011;65652;53.132;18.026;2023-03-24T06:53:04;9.00;;;4.90;;
76727;SDS011;65652;53.132;18.026;2023-03-24T06:55:32;9.70;;;5.60;;
76727;SDS011;65652;53.132;18.026;2023-03-24T06:57:58;9.00;;;4.20;;
76727;SDS011;65652;53.132;18.026;2023-03-24T07:00:39;10.90;;;5.60;;
76727;SDS011;65652;53.132;18.026;2023-03-24T07:03:24;10.70;;;5.10;;
76727;SDS011;65652;53.132;18.026;2023-03-24T07:06:17;10.80;;;4.50;;
76727;SDS011;65652;53.132;18.026;2023-03-24T07:08:48;10.40;;;5.20;;
76727;SDS011;65652;53.132;18.026;2023-03-24T07:11:14;10.00;;;4.90;;
76727;SDS011;65652;53.132;18.026;2023-03-24T07:13:48;10.60;;;5.40;;
76727;SDS011;65652;53.132;18.026;2023-03-24T07:16:15;12.30;;;4.60;;
76727;SDS011;65652;53.132;18.026;2023-03-24T07:18:42;9.70;;;4.50;;
76727;SDS011;65652;53.132;18.026;2023-03-24T07:21:08;8.70;;;4.40;;
76727;SDS011;65652;53.132;18.026;2023-03-24T07:23:35;8.40;;;3.90;;
76727;SDS011;65652;53.132;18.026;2023-03-24T07:26:10;8.10;;;4.00;;
76727;SDS011;65652;53.132;18.026;2023-03-24T07:28:45;9.90;;;4.40;;
76727;SDS011;65652;53.132;18.026;2023-03-24T07:31:15;9.50;;;5.00;;
76727;SDS011;65652;53.132;18.026;2023-03-24T07:33:41;9.00;;;4.80;;
76727;SDS011;65652;53.132;18.026;2023-03-24T07:36:08;10.10;;;5.00;;
76727;SDS011;65652;53.132;18.026;2023-03-24T07:38:35;9.50;;;5.30;;
76727;SDS011;65652;53.132;18.026;2023-03-24T07:41:04;12.20;;;5.20;;
76727;SDS011;65652;53.132;18.026;2023-03-24T07:43:32;9.20;;;4.60;;
76727;SDS011;65652;53.132;18.026;2023-03-24T07:46:16;10.10;;;5.40;;
76727;SDS011;65652;53.132;18.026;2023-03-24T07:48:42;9.00;;;4.40;;
76727;SDS011;65652;53.132;18.026;2023-03-24T07:51:09;10.20;;;4.90;;
76727;SDS011;65652;53.132;18.026;2023-03-24T07:53:47;11.10;;;5.80;;
76727;SDS011;65652;53.132;18.026;2023-03-24T07:56:21;9.80;;;5.00;;
76727;SDS011;65652;53.132;18.026;2023-03-24T07:58:51;10.30;;;5.70;;
76727;SDS011;65652;53.132;18.026;2023-03-24T08:01:24;8.40;;;4.40;;
76727;SDS011;65652;53.132;18.026;2023-03-24T08:03:52;10.20;;;5.40;;
76727;SDS011;65652;53.132;18.026;2023-03-24T08:06:41;10.00;;;5.60;;
76727;SDS011;65652;53.132;18.026;2023-03-24T08:09:08;9.80;;;4.70;;
76727;SDS011;65652;53.132;18.026;2023-03-24T08:11:36;9.80;;;4.70;;
76727;SDS011;65652;53.132;18.026;2023-03-24T08:14:03;9.90;;;5.70;;
76727;SDS011;65652;53.132;18.026;2023-03-24T08:16:29;10.60;;;5.80;;
76727;SDS011;65652;53.132;18.026;2023-03-24T08:18:55;12.10;;;6.00;;
76727;SDS011;65652;53.132;18.026;2023-03-24T08:21:25;9.90;;;5.60;;
76727;SDS011;65652;53.132;18.026;2023-03-24T08:23:51;12.10;;;5.80;;
76727;SDS011;65652;53.132;18.026;2023-03-24T08:26:17;12.80;;;5.40;;
76727;SDS011;65652;53.132;18.026;2023-03-24T08:28:43;12.00;;;6.00;;
76727;SDS011;65652;53.132;18.026;2023-03-24T08:31:10;10.30;;;4.50;;
76727;SDS011;65652;53.132;18.026;2023-03-24T08:33:37;10.30;;;5.10;;
76727;SDS011;65652;53.132;18.026;2023-03-24T08:36:03;13.20;;;6.20;;
76727;SDS011;65652;53.132;18.026;2023-03-24T08:38:29;11.50;;;6.20;;
76727;SDS011;65652;53.132;18.026;2023-03-24T08:40:59;10.70;;;5.70;;
76727;SDS011;65652;53.132;18.026;2023-03-24T08:43:28;10.20;;;5.60;;
76727;SDS011;65652;53.132;18.026;2023-03-24T08:45:55;8.60;;;4.20;;
76727;SDS011;65652;53.132;18.026;2023-03-24T08:48:22;8.90;;;4.30;;
76727;SDS011;65652;53.132;18.026;2023-03-24T08:50:49;8.30;;;4.10;;
76727;SDS011;65652;53.132;18.026;2023-03-24T08:53:15;9.30;;;4.20;;
76727;SDS011;65652;53.132;18.026;2023-03-24T08:55:41;9.20;;;4.80;;
76727;SDS011;65652;53.132;18.026;2023-03-24T08:58:16;7.70;;;4.30;;
76727;SDS011;65652;53.132;18.026;2023-03-24T09:00:46;8.80;;;5.00;;
76727;SDS011;65652;53.132;18.026;2023-03-24T09:03:14;8.70;;;4.20;;
76727;SDS011;65652;53.132;18.026;2023-03-24T09:05:47;8.30;;;4.30;;
76727;SDS011;65652;53.132;18.026;2023-03-24T09:08:14;7.80;;;3.70;;
76727;SDS011;65652;53.132;18.026;2023-03-24T09:10:42;7.90;;;3.90;;
76727;SDS011;65652;53.132;18.026;2023-03-24T09:13:11;9.10;;;4.20;;
76727;SDS011;65652;53.132;18.026;2023-03-24T09:15:38;6.80;;;3.60;;
76727;SDS011;65652;53.132;18.026;2023-03-24T09:18:04;9.50;;;4.70;;
76727;SDS011;65652;53.132;18.026;2023-03-24T09:20:31;7.80;;;3.60;;
76727;SDS011;65652;53.132;18.026;2023-03-24T09:22:57;8.50;;;4.10;;
76727;SDS011;65652;53.132;18.026;2023-03-24T09:25:23;6.60;;;3.70;;
76727;SDS011;65652;53.132;18.026;2023-03-24T09:27:49;7.60;;;4.20;;
76727;SDS011;65652;53.132;18.026;2023-03-24T09:30:16;7.30;;;3.60;;
76727;SDS011;65652;53.132;18.026;2023-03-24T09:32:44;7.40;;;4.00;;
76727;SDS011;65652;53.132;18.026;2023-03-24T09:37:38;7.10;;;3.10;;
76727;SDS011;65652;53.132;18.026;2023-03-24T09:40:09;6.60;;;3.30;;
76727;SDS011;65652;53.132;18.026;2023-03-24T09:42:44;8.20;;;4.10;;
76727;SDS011;65652;53.132;18.026;2023-03-24T09:45:17;6.00;;;2.90;;
76727;SDS011;65652;53.132;18.026;2023-03-24T09:50:23;7.10;;;3.20;;
76727;SDS011;65652;53.132;18.026;2023-03-24T09:52:54;5.50;;;2.80;;
76727;SDS011;65652;53.132;18.026;2023-03-24T09:55:25;6.50;;;3.10;;
76727;SDS011;65652;53.132;18.026;2023-03-24T09:57:54;7.40;;;3.20;;
76727;SDS011;65652;53.132;18.026;2023-03-24T10:00:29;5.70;;;2.40;;
76727;SDS011;65652;53.132;18.026;2023-03-24T10:02:58;6.80;;;3.60;;
76727;SDS011;65652;53.132;18.026;2023-03-24T10:05:50;5.90;;;2.60;;
76727;SDS011;65652;53.132;18.026;2023-03-24T10:11:00;7.20;;;2.70;;
76727;SDS011;65652;53.132;18.026;2023-03-24T10:21:47;6.10;;;3.00;;
76727;SDS011;65652;53.132;18.026;2023-03-24T10:24:24;5.90;;;2.90;;
76727;SDS011;65652;53.132;18.026;2023-03-24T10:27:03;5.80;;;2.70;;
76727;SDS011;65652;53.132;18.026;2023-03-24T10:29:37;5.10;;;2.70;;
76727;SDS011;65652;53.132;18.026;2023-03-24T10:32:11;5.30;;;2.20;;
76727;SDS011;65652;53.132;18.026;2023-03-24T10:34:41;6.30;;;2.40;;
76727;SDS011;65652;53.132;18.026;2023-03-24T10:37:10;6.60;;;2.30;;
76727;SDS011;65652;53.132;18.026;2023-03-24T10:39:39;4.90;;;2.30;;
76727;SDS011;65652;53.132;18.026;2023-03-24T10:42:05;6.00;;;2.70;;
76727;SDS011;65652;53.132;18.026;2023-03-24T10:44:31;7.90;;;3.10;;
76727;SDS011;65652;53.132;18.026;2023-03-24T10:46:58;7.30;;;2.50;;
76727;SDS011;65652;53.132;18.026;2023-03-24T10:49:28;5.60;;;2.60;;
76727;SDS011;65652;53.132;18.026;2023-03-24T10:51:58;5.00;;;2.00;;
76727;SDS011;65652;53.132;18.026;2023-03-24T10:54:29;6.00;;;2.20;;
76727;SDS011;65652;53.132;18.026;2023-03-24T11:04:36;7.10;;;2.70;;
76727;SDS011;65652;53.132;18.026;2023-03-24T11:12:27;5.90;;;2.50;;
76727;SDS011;65652;53.132;18.026;2023-03-24T11:15:02;4.20;;;1.90;;
76727;SDS011;65652;53.132;18.026;2023-03-24T11:17:42;5.10;;;2.60;;
76727;SDS011;65652;53.132;18.026;2023-03-24T11:20:44;4.90;;;2.00;;
76727;SDS011;65652;53.132;18.026;2023-03-24T11:23:18;5.30;;;2.30;;
76727;SDS011;65652;53.132;18.026;2023-03-24T11:28:49;5.10;;;2.50;;
76727;SDS011;65652;53.132;18.026;2023-03-24T11:31:26;5.10;;;2.30;;
76727;SDS011;65652;53.132;18.026;2023-03-24T11:41:27;6.10;;;2.70;;
76727;SDS011;65652;53.132;18.026;2023-03-24T11:46:44;5.70;;;2.50;;
76727;SDS011;65652;53.132;18.026;2023-03-24T11:49:14;4.80;;;2.30;;
76727;SDS011;65652;53.132;18.026;2023-03-24T11:51:45;4.30;;;1.80;;
76727;SDS011;65652;53.132;18.026;2023-03-24T11:54:16;5.40;;;2.40;;
76727;SDS011;65652;53.132;18.026;2023-03-24T11:56:46;5.10;;;2.30;;
76727;SDS011;65652;53.132;18.026;2023-03-24T12:13:06;5.90;;;2.40;;
76727;SDS011;65652;53.132;18.026;2023-03-24T12:23:24;6.30;;;3.10;;
76727;SDS011;65652;53.132;18.026;2023-03-24T12:37:23;7.90;;;3.50;;
76727;SDS011;65652;53.132;18.026;2023-03-24T12:42:45;6.40;;;2.90;;
76727;SDS011;65652;53.132;18.026;2023-03-24T12:48:11;7.60;;;3.80;;
76727;SDS011;65652;53.132;18.026;2023-03-24T12:51:05;6.90;;;3.50;;
76727;SDS011;65652;53.132;18.026;2023-03-24T12:54:08;7.70;;;3.80;;
76727;SDS011;65652;53.132;18.026;2023-03-24T12:56:37;7.00;;;3.20;;
76727;SDS011;65652;53.132;18.026;2023-03-24T12:59:25;6.70;;;3.20;;
76727;SDS011;65652;53.132;18.026;2023-03-24T13:04:59;7.20;;;3.80;;
76727;SDS011;65652;53.132;18.026;2023-03-24T13:07:31;8.10;;;3.90;;
76727;SDS011;65652;53.132;18.026;2023-03-24T13:10:04;9.30;;;4.20;;
76727;SDS011;65652;53.132;18.026;2023-03-24T13:12:40;8.90;;;4.10;;
76727;SDS011;65652;53.132;18.026;2023-03-24T13:20:04;7.70;;;3.90;;
76727;SDS011;65652;53.132;18.026;2023-03-24T13:22:37;6.20;;;3.20;;
76727;SDS011;65652;53.132;18.026;2023-03-24T13:25:07;7.80;;;3.40;;
76727;SDS011;65652;53.132;18.026;2023-03-24T13:27:44;7.40;;;3.60;;
76727;SDS011;65652;53.132;18.026;2023-03-24T13:30:24;6.10;;;3.10;;
76727;SDS011;65652;53.132;18.026;2023-03-24T13:32:59;7.40;;;3.50;;
76727;SDS011;65652;53.132;18.026;2023-03-24T13:35:35;8.30;;;3.60;;
76727;SDS011;65652;53.132;18.026;2023-03-24T13:40:39;6.60;;;3.20;;
76727;SDS011;65652;53.132;18.026;2023-03-24T13:43:09;7.30;;;3.40;;
76727;SDS011;65652;53.132;18.026;2023-03-24T13:45:39;8.30;;;3.80;;
76727;SDS011;65652;53.132;18.026;2023-03-24T13:51:12;7.10;;;3.00;;
76727;SDS011;65652;53.132;18.026;2023-03-24T13:53:37;6.30;;;3.40;;
76727;SDS011;65652;53.132;18.026;2023-03-24T13:56:08;6.40;;;3.50;;
76727;SDS011;65652;53.132;18.026;2023-03-24T14:01:14;6.50;;;3.50;;
76727;SDS011;65652;53.132;18.026;2023-03-24T14:03:44;6.40;;;3.50;;
76727;SDS011;65652;53.132;18.026;2023-03-24T14:06:15;7.00;;;3.30;;
76727;SDS011;65652;53.132;18.026;2023-03-24T14:09:04;7.40;;;3.60;;
76727;SDS011;65652;53.132;18.026;2023-03-24T14:11:41;6.70;;;3.40;;
76727;SDS011;65652;53.132;18.026;2023-03-24T14:16:48;6.00;;;2.80;;
76727;SDS011;65652;53.132;18.026;2023-03-24T14:21:44;6.20;;;2.70;;
76727;SDS011;65652;53.132;18.026;2023-03-24T14:24:24;6.30;;;2.60;;
76727;SDS011;65652;53.132;18.026;2023-03-24T14:26:53;7.30;;;2.90;;
76727;SDS011;65652;53.132;18.026;2023-03-24T14:32:03;5.20;;;2.60;;
76727;SDS011;65652;53.132;18.026;2023-03-24T14:34:30;6.50;;;3.30;;
76727;SDS011;65652;53.132;18.026;2023-03-24T14:37:02;7.20;;;3.30;;
76727;SDS011;65652;53.132;18.026;2023-03-24T14:39:38;7.00;;;3.00;;
76727;SDS011;65652;53.132;18.026;2023-03-24T14:42:27;12.00;;;3.50;;
76727;SDS011;65652;53.132;18.026;2023-03-24T14:48:03;7.30;;;3.20;;
76727;SDS011;65652;53.132;18.026;2023-03-24T14:50:47;5.40;;;2.30;;
76727;SDS011;65652;53.132;18.026;2023-03-24T14:53:16;6.80;;;2.90;;
76727;SDS011;65652;53.132;18.026;2023-03-24T14:55:45;6.10;;;2.60;;
76727;SDS011;65652;53.132;18.026;2023-03-24T14:58:21;5.60;;;2.60;;
76727;SDS011;65652;53.132;18.026;2023-03-24T15:00:53;6.80;;;2.10;;
76727;SDS011;65652;53.132;18.026;2023-03-24T15:06:11;5.00;;;1.70;;
76727;SDS011;65652;53.132;18.026;2023-03-24T15:08:50;6.10;;;2.60;;
76727;SDS011;65652;53.132;18.026;2023-03-24T15:11:36;6.80;;;2.90;;
76727;SDS011;65652;53.132;18.026;2023-03-24T15:14:05;6.10;;;2.90;;
76727;SDS011;65652;53.132;18.026;2023-03-24T15:16:40;5.90;;;2.80;;
76727;SDS011;65652;53.132;18.026;2023-03-24T15:19:20;4.90;;;2.00;;
76727;SDS011;65652;53.132;18.026;2023-03-24T15:21:49;8.30;;;2.50;;
76727;SDS011;65652;53.132;18.026;2023-03-24T15:26:48;6.80;;;2.70;;
76727;SDS011;65652;53.132;18.026;2023-03-24T15:29:19;5.00;;;2.30;;
76727;SDS011;65652;53.132;18.026;2023-03-24T15:31:46;5.00;;;2.50;;
76727;SDS011;65652;53.132;18.026;2023-03-24T15:34:23;5.90;;;2.80;;
76727;SDS011;65652;53.132;18.026;2023-03-24T15:36:57;6.40;;;2.40;;
76727;SDS011;65652;53.132;18.026;2023-03-24T15:39:28;6.30;;;2.70;;
76727;SDS011;65652;53.132;18.026;2023-03-24T15:41:58;5.10;;;2.20;;
76727;SDS011;65652;53.132;18.026;2023-03-24T15:44:25;5.80;;;2.70;;
76727;SDS011;65652;53.132;18.026;2023-03-24T15:46:55;7.40;;;2.90;;
76727;SDS011;65652;53.132;18.026;2023-03-24T15:51:56;6.90;;;3.00;;
76727;SDS011;65652;53.132;18.026;2023-03-24T15:54:37;9.20;;;3.20;;
76727;SDS011;65652;53.132;18.026;2023-03-24T16:02:40;8.50;;;3.40;;
76727;SDS011;65652;53.132;18.026;2023-03-24T16:11:04;8.20;;;3.30;;
76727;SDS011;65652;53.132;18.026;2023-03-24T16:13:36;8.40;;;4.30;;
76727;SDS011;65652;53.132;18.026;2023-03-24T16:18:40;8.20;;;3.80;;
76727;SDS011;65652;53.132;18.026;2023-03-24T16:21:10;8.10;;;4.20;;
76727;SDS011;65652;53.132;18.026;2023-03-24T16:23:42;7.80;;;3.80;;
76727;SDS011;65652;53.132;18.026;2023-03-24T16:26:13;8.40;;;4.20;;
76727;SDS011;65652;53.132;18.026;2023-03-24T16:28:41;7.80;;;4.30;;
76727;SDS011;65652;53.132;18.026;2023-03-24T16:31:12;8.30;;;4.00;;
76727;SDS011;65652;53.132;18.026;2023-03-24T16:33:52;8.50;;;3.20;;
76727;SDS011;65652;53.132;18.026;2023-03-24T16:36:19;8.50;;;3.90;;
76727;SDS011;65652;53.132;18.026;2023-03-24T16:38:52;7.40;;;3.00;;
76727;SDS011;65652;53.132;18.026;2023-03-24T16:41:20;8.30;;;3.60;;
76727;SDS011;65652;53.132;18.026;2023-03-24T16:43:46;7.70;;;3.70;;
76727;SDS011;65652;53.132;18.026;2023-03-24T16:46:14;8.90;;;3.80;;
76727;SDS011;65652;53.132;18.026;2023-03-24T16:48:42;11.80;;;4.30;;
76727;SDS011;65652;53.132;18.026;2023-03-24T16:51:09;7.90;;;3.90;;
76727;SDS011;65652;53.132;18.026;2023-03-24T16:53:41;8.30;;;3.60;;
76727;SDS011;65652;53.132;18.026;2023-03-24T16:56:08;9.30;;;3.30;;
76727;SDS011;65652;53.132;18.026;2023-03-24T16:58:37;7.50;;;3.60;;
76727;SDS011;65652;53.132;18.026;2023-03-24T17:01:11;7.10;;;3.40;;
76727;SDS011;65652;53.132;18.026;2023-03-24T17:06:14;4.80;;;2.00;;
76727;SDS011;65652;53.132;18.026;2023-03-24T17:08:42;5.10;;;2.30;;
76727;SDS011;65652;53.132;18.026;2023-03-24T17:11:08;6.60;;;2.50;;
76727;SDS011;65652;53.132;18.026;2023-03-24T17:13:35;5.30;;;2.00;;
76727;SDS011;65652;53.132;18.026;2023-03-24T17:16:01;5.20;;;2.60;;
76727;SDS011;65652;53.132;18.026;2023-03-24T17:18:27;6.10;;;2.50;;
76727;SDS011;65652;53.132;18.026;2023-03-24T17:20:53;6.00;;;2.20;;
76727;SDS011;65652;53.132;18.026;2023-03-24T17:23:19;6.70;;;2.60;;
76727;SDS011;65652;53.132;18.026;2023-03-24T17:25:46;8.50;;;3.80;;
76727;SDS011;65652;53.132;18.026;2023-03-24T17:28:14;8.90;;;3.10;;
76727;SDS011;65652;53.132;18.026;2023-03-24T17:30:42;7.40;;;3.00;;
76727;SDS011;65652;53.132;18.026;2023-03-24T17:33:12;6.50;;;2.60;;
76727;SDS011;65652;53.132;18.026;2023-03-24T17:35:38;6.60;;;2.50;;
76727;SDS011;65652;53.132;18.026;2023-03-24T17:38:05;5.20;;;2.40;;
76727;SDS011;65652;53.132;18.026;2023-03-24T17:40:31;11.10;;;4.80;;
76727;SDS011;65652;53.132;18.026;2023-03-24T17:42:57;8.80;;;3.80;;
76727;SDS011;65652;53.132;18.026;2023-03-24T17:45:23;8.60;;;3.60;;
76727;SDS011;65652;53.132;18.026;2023-03-24T17:47:50;5.60;;;2.60;;
76727;SDS011;65652;53.132;18.026;2023-03-24T17:50:16;6.30;;;2.30;;
76727;SDS011;65652;53.132;18.026;2023-03-24T17:52:46;7.20;;;2.70;;
76727;SDS011;65652;53.132;18.026;2023-03-24T17:55:14;7.90;;;3.40;;
76727;SDS011;65652;53.132;18.026;2023-03-24T17:57:41;9.80;;;3.80;;
76727;SDS011;65652;53.132;18.026;2023-03-24T18:00:08;9.00;;;4.30;;
76727;SDS011;65652;53.132;18.026;2023-03-24T18:02:40;11.40;;;4.70;;
76727;SDS011;65652;53.132;18.026;2023-03-24T18:05:08;7.30;;;3.30;;
76727;SDS011;65652;53.132;18.026;2023-03-24T18:07:37;8.00;;;3.30;;
76727;SDS011;65652;53.132;18.026;2023-03-24T18:10:04;6.50;;;2.70;;
76727;SDS011;65652;53.132;18.026;2023-03-24T18:14:59;9.50;;;3.60;;
76727;SDS011;65652;53.132;18.026;2023-03-24T18:17:25;8.30;;;3.80;;
76727;SDS011;65652;53.132;18.026;2023-03-24T18:19:51;7.50;;;3.20;;
76727;SDS011;65652;53.132;18.026;2023-03-24T18:22:17;7.20;;;2.70;;
76727;SDS011;65652;53.132;18.026;2023-03-24T18:24:44;5.80;;;2.50;;
76727;SDS011;65652;53.132;18.026;2023-03-24T18:27:10;7.50;;;3.20;;
76727;SDS011;65652;53.132;18.026;2023-03-24T18:29:36;7.50;;;2.70;;
76727;SDS011;65652;53.132;18.026;2023-03-24T18:32:04;6.70;;;2.50;;
76727;SDS011;65652;53.132;18.026;2023-03-24T18:34:31;5.90;;;2.00;;
76727;SDS011;65652;53.132;18.026;2023-03-24T18:36:58;5.20;;;1.90;;
76727;SDS011;65652;53.132;18.026;2023-03-24T18:39:24;4.80;;;1.60;;
76727;SDS011;65652;53.132;18.026;2023-03-24T18:41:50;5.30;;;2.00;;
76727;SDS011;65652;53.132;18.026;2023-03-24T18:44:18;5.20;;;1.80;;
76727;SDS011;65652;53.132;18.026;2023-03-24T18:46:45;4.50;;;1.90;;
76727;SDS011;65652;53.132;18.026;2023-03-24T18:49:12;6.10;;;2.20;;
76727;SDS011;65652;53.132;18.026;2023-03-24T18:51:39;6.60;;;2.40;;
76727;SDS011;65652;53.132;18.026;2023-03-24T18:54:06;7.00;;;2.50;;
76727;SDS011;65652;53.132;18.026;2023-03-24T18:56:33;10.00;;;4.50;;
76727;SDS011;65652;53.132;18.026;2023-03-24T18:58:59;8.90;;;2.90;;
76727;SDS011;65652;53.132;18.026;2023-03-24T19:01:26;7.40;;;2.60;;
76727;SDS011;65652;53.132;18.026;2023-03-24T19:03:54;7.30;;;2.90;;
76727;SDS011;65652;53.132;18.026;2023-03-24T19:06:21;10.60;;;4.40;;
76727;SDS011;65652;53.132;18.026;2023-03-24T19:08:51;7.50;;;3.20;;
76727;SDS011;65652;53.132;18.026;2023-03-24T19:11:18;7.40;;;3.20;;
76727;SDS011;65652;53.132;18.026;2023-03-24T19:13:44;6.90;;;3.40;;
76727;SDS011;65652;53.132;18.026;2023-03-24T19:16:15;7.80;;;3.70;;
76727;SDS011;65652;53.132;18.026;2023-03-24T19:18:42;7.70;;;3.10;;
76727;SDS011;65652;53.132;18.026;2023-03-24T19:21:08;9.70;;;5.10;;
76727;SDS011;65652;53.132;18.026;2023-03-24T19:23:35;8.80;;;4.40;;
76727;SDS011;65652;53.132;18.026;2023-03-24T19:26:01;9.10;;;3.60;;
76727;SDS011;65652;53.132;18.026;2023-03-24T19:28:29;8.30;;;3.50;;
76727;SDS011;65652;53.132;18.026;2023-03-24T19:30:58;7.80;;;4.00;;
76727;SDS011;65652;53.132;18.026;2023-03-24T19:33:26;7.60;;;3.60;;
76727;SDS011;65652;53.132;18.026;2023-03-24T19:35:53;8.60;;;3.80;;
76727;SDS011;65652;53.132;18.026;2023-03-24T19:38:19;9.10;;;4.20;;
76727;SDS011;65652;53.132;18.026;2023-03-24T19:40:49;7.70;;;3.90;;
76727;SDS011;65652;53.132;18.026;2023-03-24T19:43:18;8.40;;;3.80;;
76727;SDS011;65652;53.132;18.026;2023-03-24T19:45:51;8.60;;;3.60;;